Wetter & Webcam

Wetterdaten Diepholz (ETND)

METAR
METAR text: ETND 141320Z 09008KT 9999 FEW040 SCT150 BKN280 18/13 Q1012 BLU+ Conditions at: ETND (DIEPHOLZ (GER-AF, DE) observed 1320 UTC 14 October 2019 Temperature: 18.0°C (64°F) Dewpoint: 13.0°C (55°F) [RH = 73%] Pressure (altimeter): 29.88 inches Hg (1012.0 mb) Winds: from the E (90 degrees) at 9 MPH (8 knots; 4.1 m/s) Visibility: 6 or more miles (10+ km) Ceiling: 28000 feet AGL Clouds: few clouds at 4000 feet AGL =
scattered clouds at 15000 feet AGL =
broken clouds at 28000 feet AGL Weather: no significant weather observed at this time Forecast for: AMD Text: AMD ETND 141400Z 1411/1420 09008KT 9999 NSW BKN050 BKN280 CANCEL 1400 BY ETGL Forecast period: 1100 to 2000 UTC 14 October 2019 Forecast type: FROM: standard forecast or significant change Winds: from the E (90 degrees) at 9 MPH (8 knots; 4.1 m/s) Visibility: 6 or more miles 10+ km) Ceiling: 5000 feet AGL Clouds: broken clouds at 5000 feet AGL =
broken clouds at 28000 feet AGL Weather: NSW  (no significant weather)
Sunrise (SR) / Sunset (SS)
05:50 / 16:35 UTC

Wetterdaten Bremen (EDDW)

METAR
METAR text: EDDW 141750Z 08008KT CAVOK 15/12 Q1010 NOSIG Conditions at: EDDW (BREMEN , DE) observed 1750 UTC 14 October 2019 Temperature: 15.0°C (59°F) Dewpoint: 12.0°C (54°F) [RH = 82%] Pressure (altimeter): 29.82 inches Hg (1010.0 mb) Winds: from the E (80 degrees) at 9 MPH (8 knots; 4.1 m/s) Visibility: 6 or more miles (10+ km) Ceiling: ceiling and visibility are OK Clouds: unknown Weather: no significant weather observed at this time Forecast for: EDDW (BREMEN , DE) Text: EDDW 141700Z 1418/1518 11007KT CAVOK Forecast period: 1800 UTC 14 October 2019 to 0300 UTC 15 October 2019 Forecast type: FROM: standard forecast or significant change Winds: from the ESE (110 degrees) at 8 MPH (7 knots; 3.6 m/s) Visibility: 6 or more miles 10+ km) Ceiling: unknown Clouds: missing Weather: NSW  (no significant weather) Text: BECMG 1503/1505 17005KT Forecast period: 0300 to 1000 UTC 15 October 2019 Forecast type: BECOMING: Conditions expected to become as follows by 0500 UTC 15 October 2019 Winds: from the S (170 degrees) at 6 MPH (5 knots; 2.6 m/s) Visibility: 6 or more miles 10+ km) Ceiling: unknown Clouds: missing Weather: NSW  (no significant weather) Text: PROB30 Forecast period: 0400 to 0700 UTC 15 October 2019 Forecast type: TEMPORARY: The following changes expected for less than half the time period Visibility: 2.80 miles (4.51 km) Ceiling: unknown Clouds: missing Weather: BR  (mist) Text: TEMPO 1504/1507 4500 BR Forecast period: 1000 to 1800 UTC 15 October 2019 Forecast type: BECOMING: Conditions expected to become as follows by 1200 UTC 15 October 2019 Winds: from the WSW (240 degrees) at 5 MPH (4 knots; 2.1 m/s) Visibility: 6 or more miles 10+ km) Ceiling: unknown Clouds: missing Weather: NSW  (no significant weather)

Copyright © 2017 Flugplatz Diepholz-Dümmerland

© 2017 Flugplatz Diepholz-Dümmerland